New York, New York
Current Conditions -  °F | °C
As of 5:15 AM on Monday 26 Jan 2015 (Local Time) from KJRB Reporting Station
Overcast Overcast  
Wind Chill: 14°   Ceiling: 4600
Heat Index: 27°   Visibility: 10mi
Dew Point: 16°   Wind: 16mph
Humidity: 64%   Direction: 30°NNE
Pressure: 30.01"   Gusts: 25mph
Location:  40.71°N, 74.01°W
Report Text: KJRB 261015Z AUTO 03014G22KT 10SM SCT038 BKN046 OVC090 M03/M09 A3001 RMK AO1
Loading
Personal Weather Stations






























Interactive Weather Map New forecast layout! Learn more

10-Day Weather Forecast

Advertisements
Track Severe Weather on mobile